createdAt,value
2024-02-21T00:00:21.811Z,3.45
2024-02-21T00:05:23.415Z,3.72
2024-02-21T00:10:26.489Z,3.85
2024-02-21T00:15:28.228Z,3.35
2024-02-21T00:20:29.879Z,3.63
2024-02-21T00:25:32.870Z,3.60
2024-02-21T00:30:34.453Z,3.40
2024-02-21T00:35:36.100Z,3.45
2024-02-21T00:40:38.973Z,3.83
2024-02-21T00:45:40.540Z,3.65
2024-02-21T00:50:42.225Z,3.60
2024-02-21T00:55:45.097Z,3.55
2024-02-21T01:00:46.622Z,3.45
2024-02-21T01:05:48.237Z,3.80
2024-02-21T01:10:51.276Z,3.83
2024-02-21T01:15:52.964Z,3.40
2024-02-21T01:20:54.473Z,3.30
2024-02-21T01:25:57.514Z,3.22
2024-02-21T01:30:59.175Z,3.28
2024-02-21T01:36:00.860Z,3.17
2024-02-21T01:41:04.188Z,2.80
2024-02-21T01:46:05.839Z,3.65
2024-02-21T01:51:07.449Z,3.08
2024-02-21T01:56:10.927Z,2.92
2024-02-21T02:01:12.611Z,3.03
2024-02-21T02:06:15.322Z,3.53
2024-02-21T02:11:18.502Z,3.35
2024-02-21T02:16:20.064Z,3.08
2024-02-21T02:21:29.808Z,3.20
2024-02-21T02:26:32.736Z,3.63
2024-02-21T02:31:34.330Z,3.28
2024-02-21T02:36:36.827Z,3.35
2024-02-21T02:41:39.725Z,3.33
2024-02-21T02:46:41.480Z,3.40
2024-02-21T02:51:43.310Z,3.10
2024-02-21T02:56:46.217Z,3.05
2024-02-21T03:01:47.840Z,3.00
2024-02-21T03:06:49.351Z,3.40
2024-02-21T03:11:52.228Z,3.05
2024-02-21T03:16:53.912Z,2.85
2024-02-21T03:21:55.631Z,3.20
2024-02-21T03:26:58.545Z,3.28
2024-02-21T03:32:00.195Z,3.35
2024-02-21T03:37:01.966Z,2.97
2024-02-21T03:42:05.504Z,3.47
2024-02-21T03:47:07.135Z,3.10
2024-02-21T03:52:08.634Z,3.30
2024-02-21T03:57:11.601Z,3.25
2024-02-21T04:02:13.292Z,3.83
2024-02-21T04:07:15.209Z,3.80
2024-02-21T04:12:18.147Z,3.90
2024-02-21T04:17:19.684Z,3.90
2024-02-21T04:22:21.550Z,3.85
2024-02-21T04:27:24.477Z,4.38
2024-02-21T04:32:26.141Z,4.65
2024-02-21T04:37:27.847Z,4.43
2024-02-21T04:42:30.819Z,3.63
2024-02-21T04:47:32.451Z,3.90
2024-02-21T04:52:34.066Z,4.25
2024-02-21T04:57:36.970Z,4.10
2024-02-21T05:02:38.596Z,4.75
2024-02-21T05:07:40.077Z,4.90
2024-02-21T05:12:43.017Z,4.72
2024-02-21T05:17:44.752Z,5.65
2024-02-21T05:22:46.404Z,7.97
2024-02-21T05:27:52.099Z,6.85
2024-02-21T05:32:53.700Z,7.25
2024-02-21T05:37:55.269Z,7.70
2024-02-21T05:42:58.161Z,9.00
2024-02-21T05:47:59.901Z,8.50
2024-02-21T05:53:01.708Z,8.40
2024-02-21T05:58:04.778Z,8.73
2024-02-21T06:03:06.356Z,8.93
2024-02-21T06:08:07.947Z,8.23
2024-02-21T06:13:11.015Z,8.48
2024-02-21T06:18:12.885Z,8.63
2024-02-21T06:23:16.844Z,9.23
2024-02-21T06:28:19.761Z,8.52
2024-02-21T06:33:21.489Z,7.88
2024-02-21T06:38:23.282Z,8.18
2024-02-21T06:43:26.262Z,8.55
2024-02-21T06:48:27.866Z,7.57
2024-02-21T06:53:29.798Z,9.80
2024-02-21T06:58:32.724Z,8.45
2024-02-21T07:03:34.271Z,6.88
2024-02-21T07:08:36.015Z,7.75
2024-02-21T07:13:39.062Z,6.88
2024-02-21T07:18:40.658Z,6.68
2024-02-21T07:23:42.558Z,7.05
2024-02-21T07:28:45.465Z,6.78
2024-02-21T07:33:47.036Z,6.38
2024-02-21T07:38:48.608Z,6.72
2024-02-21T07:43:51.597Z,6.05
2024-02-21T07:48:53.273Z,7.55
2024-02-21T07:53:54.888Z,6.20
2024-02-21T07:58:57.857Z,4.97
2024-02-21T08:03:59.678Z,4.75
2024-02-21T08:09:01.208Z,5.32
2024-02-21T08:14:04.151Z,5.20
2024-02-21T08:19:05.727Z,5.43
2024-02-21T08:24:07.310Z,5.35
2024-02-21T08:29:10.343Z,5.78
2024-02-21T08:34:11.965Z,5.20
2024-02-21T08:39:13.523Z,5.45
2024-02-21T08:44:16.425Z,5.22
2024-02-21T08:49:17.976Z,14.75
2024-02-21T08:54:19.542Z,5.38
2024-02-21T08:59:22.431Z,5.70
2024-02-21T09:04:24.022Z,5.13
2024-02-21T09:09:27.962Z,5.13
2024-02-21T09:14:32.572Z,5.50
2024-02-21T09:19:36.496Z,8.77
2024-02-21T09:24:38.138Z,5.13
2024-02-21T09:29:41.178Z,5.30
2024-02-21T09:34:42.973Z,5.53
2024-02-21T09:39:44.688Z,10.13
2024-02-21T09:44:47.609Z,5.55
2024-02-21T09:49:49.333Z,5.15
2024-02-21T09:54:50.975Z,5.05
2024-02-21T09:59:53.865Z,4.78
2024-02-21T10:04:55.445Z,4.72
2024-02-21T10:10:01.857Z,4.05
2024-02-21T10:15:06.271Z,4.68
2024-02-21T10:20:08.646Z,4.32
2024-02-21T10:25:10.799Z,3.53
2024-02-21T10:30:15.581Z,4.55
2024-02-21T10:35:27.124Z,4.13
2024-02-21T10:40:30.189Z,3.55
2024-02-21T10:45:36.202Z,3.75
2024-02-21T10:50:48.460Z,3.45
2024-02-21T10:55:59.569Z,3.10
2024-02-21T11:01:04.149Z,3.53
2024-02-21T11:06:06.425Z,3.10
2024-02-21T11:11:09.311Z,2.72
2024-02-21T11:16:23.380Z,4.40
2024-02-21T11:21:34.394Z,2.90
2024-02-21T11:26:38.677Z,3.10
2024-02-21T11:31:42.411Z,2.38
2024-02-21T11:36:51.283Z,2.83
2024-02-21T11:42:05.641Z,3.17
2024-02-21T11:47:09.187Z,5.70
2024-02-21T11:52:10.788Z,3.47
2024-02-21T11:57:12.322Z,2.97
2024-02-21T12:02:15.625Z,2.63
2024-02-21T12:07:17.317Z,2.90
2024-02-21T12:12:21.592Z,2.58
2024-02-21T12:17:24.812Z,2.60
2024-02-21T12:22:30.004Z,2.75
2024-02-21T12:27:31.688Z,2.20
2024-02-21T12:32:35.004Z,2.92
2024-02-21T12:37:39.680Z,2.45
2024-02-21T12:42:41.678Z,2.47
2024-02-21T12:47:44.574Z,2.10
2024-02-21T12:52:46.350Z,2.20
2024-02-21T12:57:47.896Z,2.20
2024-02-21T13:02:50.726Z,2.13
2024-02-21T13:07:52.382Z,1.92
2024-02-21T13:12:53.907Z,2.00
2024-02-21T13:17:57.420Z,1.77
2024-02-21T13:22:59.043Z,2.47
2024-02-21T13:28:00.646Z,1.75
2024-02-21T13:33:03.735Z,1.70
2024-02-21T13:38:05.377Z,1.90
2024-02-21T13:43:09.394Z,1.83
2024-02-21T13:48:13.667Z,1.70
2024-02-21T13:53:15.251Z,1.60
2024-02-21T13:58:17.796Z,2.10
2024-02-21T14:03:20.813Z,1.90
2024-02-21T14:08:22.399Z,1.70
2024-02-21T14:13:24.214Z,1.67
2024-02-21T14:18:27.353Z,1.55
2024-02-21T14:23:28.937Z,2.83
2024-02-21T14:28:30.545Z,1.80
2024-02-21T14:33:33.645Z,2.22
2024-02-21T14:38:35.307Z,1.80
2024-02-21T14:43:36.940Z,2.42
2024-02-21T14:48:40.001Z,2.33
2024-02-21T14:53:41.661Z,2.05
2024-02-21T14:58:43.197Z,1.85
2024-02-21T15:03:46.223Z,2.47
2024-02-21T15:08:47.875Z,2.55
2024-02-21T15:13:49.580Z,2.58
2024-02-21T15:18:52.502Z,2.30
2024-02-21T15:23:55.181Z,4.30
2024-02-21T15:28:56.985Z,2.95
2024-02-21T15:33:59.966Z,2.60
2024-02-21T15:39:01.744Z,5.78
2024-02-21T15:44:03.342Z,4.70
2024-02-21T15:49:06.361Z,2.97
2024-02-21T15:54:08.045Z,2.13
2024-02-21T15:59:09.635Z,2.20
2024-02-21T16:04:12.689Z,2.70
2024-02-21T16:09:14.237Z,2.65
2024-02-21T16:14:15.833Z,2.53
2024-02-21T16:19:18.991Z,7.80
2024-02-21T16:24:20.609Z,3.78
2024-02-21T16:29:23.231Z,4.78
2024-02-21T16:34:26.155Z,5.40
2024-02-21T16:39:27.960Z,5.57
2024-02-21T16:44:29.653Z,3.80
2024-02-21T16:49:35.801Z,3.75
2024-02-21T16:54:38.734Z,4.43
2024-02-21T16:59:40.370Z,3.22
2024-02-21T17:04:43.614Z,3.17
2024-02-21T17:09:45.272Z,2.92
2024-02-21T17:14:48.139Z,2.80
2024-02-21T17:19:51.334Z,2.90
2024-02-21T17:24:52.950Z,3.58
2024-02-21T17:29:54.712Z,3.65
2024-02-21T17:34:57.686Z,3.83
2024-02-21T17:39:59.311Z,3.20
2024-02-21T17:45:00.955Z,3.17
2024-02-21T17:50:04.606Z,3.28
2024-02-21T17:55:06.676Z,3.00
2024-02-21T18:00:08.728Z,3.40
2024-02-21T18:05:11.881Z,5.93
2024-02-21T18:10:13.847Z,3.08
2024-02-21T18:15:15.519Z,3.20
2024-02-21T18:20:19.486Z,3.10
2024-02-21T18:25:21.014Z,3.90
2024-02-21T18:30:22.571Z,3.83
2024-02-21T18:35:25.446Z,5.78
2024-02-21T18:40:27.122Z,4.05
2024-02-21T18:45:28.762Z,3.80
2024-02-21T18:50:31.764Z,3.72
2024-02-21T18:55:33.556Z,4.25
2024-02-21T19:00:35.110Z,4.07
2024-02-21T19:05:38.163Z,4.22
2024-02-21T19:10:39.788Z,3.45
2024-02-21T19:15:41.497Z,3.70
2024-02-21T19:20:44.405Z,3.83
2024-02-21T19:25:46.081Z,3.88
2024-02-21T19:30:47.754Z,3.90
2024-02-21T19:35:50.778Z,4.03
2024-02-21T19:40:52.652Z,3.42
2024-02-21T19:45:54.256Z,10.02
2024-02-21T19:50:57.233Z,3.92
2024-02-21T19:55:58.907Z,4.00
2024-02-21T20:01:00.558Z,3.95
2024-02-21T20:06:04.064Z,3.53
2024-02-21T20:11:05.747Z,4.18
2024-02-21T20:16:07.628Z,4.13
2024-02-21T20:21:10.447Z,4.28
2024-02-21T20:26:12.095Z,4.60
2024-02-21T20:31:13.701Z,10.57
2024-02-21T20:36:16.648Z,4.60
2024-02-21T20:41:18.479Z,4.28
2024-02-21T20:46:20.121Z,5.00
2024-02-21T20:51:22.967Z,4.45
2024-02-21T20:56:24.630Z,4.47
2024-02-21T21:01:26.277Z,4.35
2024-02-21T21:06:29.272Z,6.22
2024-02-21T21:11:38.783Z,5.43
2024-02-21T21:16:47.615Z,4.10
2024-02-21T21:21:50.522Z,4.47
2024-02-21T21:26:52.525Z,4.32
2024-02-21T21:31:54.086Z,4.70
2024-02-21T21:36:56.899Z,6.97
2024-02-21T21:41:58.410Z,5.03
2024-02-21T21:47:00.023Z,6.55
2024-02-21T21:52:03.172Z,4.80
2024-02-21T21:57:05.495Z,4.65
2024-02-21T22:02:07.163Z,4.03
2024-02-21T22:07:10.097Z,4.47
2024-02-21T22:12:11.680Z,4.50
2024-02-21T22:17:14.794Z,4.32
2024-02-21T22:22:18.601Z,4.57
2024-02-21T22:27:20.259Z,4.25
2024-02-21T22:32:21.897Z,4.30
2024-02-21T22:37:24.733Z,3.80
2024-02-21T22:42:26.272Z,4.40
2024-02-21T22:47:27.814Z,3.92
2024-02-21T22:52:30.997Z,4.13
2024-02-21T22:57:32.963Z,4.22
2024-02-21T23:02:34.526Z,3.97
2024-02-21T23:07:37.466Z,3.90
2024-02-21T23:12:38.963Z,3.97
2024-02-21T23:17:40.494Z,4.00
2024-02-21T23:22:44.198Z,4.53
2024-02-21T23:27:45.822Z,4.35
2024-02-21T23:32:47.405Z,3.97
2024-02-21T23:37:50.289Z,4.10
2024-02-21T23:42:51.812Z,4.45
2024-02-21T23:47:53.306Z,4.00
2024-02-21T23:52:56.194Z,3.72
2024-02-21T23:57:57.746Z,3.63
